sensor_id;sensor_type;location;lat;lon;timestamp;P1;durP1;ratioP1;P2;durP2;ratioP2
55417;SDS011;41287;47.554;7.844;2023-05-10T00:00:01;3.47;;;2.25;;
55417;SDS011;41287;47.554;7.844;2023-05-10T00:02:27;4.35;;;2.38;;
55417;SDS011;41287;47.554;7.844;2023-05-10T00:04:52;4.25;;;2.40;;
55417;SDS011;41287;47.554;7.844;2023-05-10T00:07:17;3.35;;;2.08;;
55417;SDS011;41287;47.554;7.844;2023-05-10T00:09:45;3.47;;;2.35;;
55417;SDS011;41287;47.554;7.844;2023-05-10T00:12:10;4.55;;;2.20;;
55417;SDS011;41287;47.554;7.844;2023-05-10T00:14:36;2.53;;;1.90;;
55417;SDS011;41287;47.554;7.844;2023-05-10T00:17:01;4.43;;;2.15;;
55417;SDS011;41287;47.554;7.844;2023-05-10T00:19:26;3.40;;;2.10;;
55417;SDS011;41287;47.554;7.844;2023-05-10T00:21:52;4.20;;;2.60;;
55417;SDS011;41287;47.554;7.844;2023-05-10T00:24:19;5.30;;;2.47;;
55417;SDS011;41287;47.554;7.844;2023-05-10T00:26:45;4.20;;;2.50;;
55417;SDS011;41287;47.554;7.844;2023-05-10T00:29:10;4.38;;;2.63;;
55417;SDS011;41287;47.554;7.844;2023-05-10T00:31:35;3.75;;;2.33;;
55417;SDS011;41287;47.554;7.844;2023-05-10T00:34:01;3.95;;;2.20;;
55417;SDS011;41287;47.554;7.844;2023-05-10T00:36:26;3.05;;;1.92;;
55417;SDS011;41287;47.554;7.844;2023-05-10T00:38:52;3.47;;;2.33;;
55417;SDS011;41287;47.554;7.844;2023-05-10T00:41:23;4.30;;;2.25;;
55417;SDS011;41287;47.554;7.844;2023-05-10T00:43:49;5.70;;;2.10;;
55417;SDS011;41287;47.554;7.844;2023-05-10T00:46:15;6.20;;;2.55;;
55417;SDS011;41287;47.554;7.844;2023-05-10T00:48:40;3.92;;;2.30;;
55417;SDS011;41287;47.554;7.844;2023-05-10T00:51:06;3.53;;;2.35;;
55417;SDS011;41287;47.554;7.844;2023-05-10T00:53:32;4.20;;;2.63;;
55417;SDS011;41287;47.554;7.844;2023-05-10T00:55:58;3.03;;;2.20;;
55417;SDS011;41287;47.554;7.844;2023-05-10T00:58:28;2.63;;;2.15;;
55417;SDS011;41287;47.554;7.844;2023-05-10T01:00:55;4.38;;;2.05;;
55417;SDS011;41287;47.554;7.844;2023-05-10T01:03:22;3.47;;;2.20;;
55417;SDS011;41287;47.554;7.844;2023-05-10T01:05:47;3.50;;;1.95;;
55417;SDS011;41287;47.554;7.844;2023-05-10T01:08:12;5.35;;;2.50;;
55417;SDS011;41287;47.554;7.844;2023-05-10T01:10:38;4.15;;;2.35;;
55417;SDS011;41287;47.554;7.844;2023-05-10T01:13:03;4.45;;;2.50;;
55417;SDS011;41287;47.554;7.844;2023-05-10T01:15:29;3.95;;;2.60;;
55417;SDS011;41287;47.554;7.844;2023-05-10T01:17:55;3.70;;;2.22;;
55417;SDS011;41287;47.554;7.844;2023-05-10T01:20:21;6.22;;;2.08;;
55417;SDS011;41287;47.554;7.844;2023-05-10T01:28:51;3.40;;;1.92;;
55417;SDS011;41287;47.554;7.844;2023-05-10T01:34:25;4.55;;;2.45;;
55417;SDS011;41287;47.554;7.844;2023-05-10T01:36:58;5.25;;;2.95;;
55417;SDS011;41287;47.554;7.844;2023-05-10T01:39:32;3.95;;;2.10;;
55417;SDS011;41287;47.554;7.844;2023-05-10T01:42:11;3.13;;;2.20;;
55417;SDS011;41287;47.554;7.844;2023-05-10T01:44:45;3.55;;;2.28;;
55417;SDS011;41287;47.554;7.844;2023-05-10T01:47:20;3.75;;;2.08;;
55417;SDS011;41287;47.554;7.844;2023-05-10T01:49:56;4.15;;;2.10;;
55417;SDS011;41287;47.554;7.844;2023-05-10T01:52:30;4.00;;;2.15;;
55417;SDS011;41287;47.554;7.844;2023-05-10T01:55:02;4.25;;;2.20;;
55417;SDS011;41287;47.554;7.844;2023-05-10T01:57:32;3.40;;;2.20;;
55417;SDS011;41287;47.554;7.844;2023-05-10T02:00:01;3.53;;;2.17;;
55417;SDS011;41287;47.554;7.844;2023-05-10T02:02:28;3.40;;;2.08;;
55417;SDS011;41287;47.554;7.844;2023-05-10T02:04:58;4.05;;;2.33;;
55417;SDS011;41287;47.554;7.844;2023-05-10T02:07:26;3.63;;;2.30;;
55417;SDS011;41287;47.554;7.844;2023-05-10T02:09:53;3.08;;;2.03;;
55417;SDS011;41287;47.554;7.844;2023-05-10T02:12:20;3.28;;;2.28;;
55417;SDS011;41287;47.554;7.844;2023-05-10T02:14:48;3.58;;;2.35;;
55417;SDS011;41287;47.554;7.844;2023-05-10T02:17:14;4.32;;;2.28;;
55417;SDS011;41287;47.554;7.844;2023-05-10T02:19:43;4.82;;;2.45;;
55417;SDS011;41287;47.554;7.844;2023-05-10T02:22:11;2.45;;;1.88;;
55417;SDS011;41287;47.554;7.844;2023-05-10T02:24:38;3.55;;;2.17;;
55417;SDS011;41287;47.554;7.844;2023-05-10T02:27:04;4.88;;;2.50;;
55417;SDS011;41287;47.554;7.844;2023-05-10T02:29:32;3.75;;;2.10;;
55417;SDS011;41287;47.554;7.844;2023-05-10T02:31:58;3.65;;;2.35;;
55417;SDS011;41287;47.554;7.844;2023-05-10T02:34:25;4.75;;;2.67;;
55417;SDS011;41287;47.554;7.844;2023-05-10T02:36:52;3.90;;;2.20;;
55417;SDS011;41287;47.554;7.844;2023-05-10T02:39:20;4.93;;;2.13;;
55417;SDS011;41287;47.554;7.844;2023-05-10T02:41:46;4.05;;;2.20;;
55417;SDS011;41287;47.554;7.844;2023-05-10T02:44:14;3.35;;;1.92;;
55417;SDS011;41287;47.554;7.844;2023-05-10T02:46:42;3.75;;;2.15;;
55417;SDS011;41287;47.554;7.844;2023-05-10T02:49:08;3.22;;;1.80;;
55417;SDS011;41287;47.554;7.844;2023-05-10T02:51:34;2.85;;;2.10;;
55417;SDS011;41287;47.554;7.844;2023-05-10T02:57:00;3.20;;;1.73;;
55417;SDS011;41287;47.554;7.844;2023-05-10T02:59:30;3.42;;;2.08;;
55417;SDS011;41287;47.554;7.844;2023-05-10T03:01:56;3.55;;;1.90;;
55417;SDS011;41287;47.554;7.844;2023-05-10T03:04:21;3.67;;;2.15;;
55417;SDS011;41287;47.554;7.844;2023-05-10T03:06:46;3.17;;;2.20;;
55417;SDS011;41287;47.554;7.844;2023-05-10T03:09:12;2.45;;;1.90;;
55417;SDS011;41287;47.554;7.844;2023-05-10T03:17:00;3.78;;;2.28;;
55417;SDS011;41287;47.554;7.844;2023-05-10T03:20:16;4.25;;;2.10;;
55417;SDS011;41287;47.554;7.844;2023-05-10T03:22:30;3.35;;;1.92;;
55417;SDS011;41287;47.554;7.844;2023-05-10T03:24:57;4.80;;;2.45;;
55417;SDS011;41287;47.554;7.844;2023-05-10T03:27:25;3.60;;;2.05;;
55417;SDS011;41287;47.554;7.844;2023-05-10T03:29:52;2.55;;;1.65;;
55417;SDS011;41287;47.554;7.844;2023-05-10T03:32:18;3.53;;;2.08;;
55417;SDS011;41287;47.554;7.844;2023-05-10T03:34:44;3.75;;;2.08;;
55417;SDS011;41287;47.554;7.844;2023-05-10T03:37:09;3.47;;;2.17;;
55417;SDS011;41287;47.554;7.844;2023-05-10T03:39:36;3.83;;;2.10;;
55417;SDS011;41287;47.554;7.844;2023-05-10T03:42:01;3.17;;;2.15;;
55417;SDS011;41287;47.554;7.844;2023-05-10T03:44:26;3.30;;;2.28;;
55417;SDS011;41287;47.554;7.844;2023-05-10T03:46:52;2.25;;;1.75;;
55417;SDS011;41287;47.554;7.844;2023-05-10T03:49:17;2.40;;;1.80;;
55417;SDS011;41287;47.554;7.844;2023-05-10T03:51:43;2.58;;;1.90;;
55417;SDS011;41287;47.554;7.844;2023-05-10T03:54:08;2.13;;;1.52;;
55417;SDS011;41287;47.554;7.844;2023-05-10T03:56:33;3.95;;;2.13;;
55417;SDS011;41287;47.554;7.844;2023-05-10T03:58:59;2.90;;;1.80;;
55417;SDS011;41287;47.554;7.844;2023-05-10T04:01:24;3.20;;;1.80;;
55417;SDS011;41287;47.554;7.844;2023-05-10T04:03:52;3.50;;;2.13;;
55417;SDS011;41287;47.554;7.844;2023-05-10T04:06:17;2.22;;;1.80;;
55417;SDS011;41287;47.554;7.844;2023-05-10T04:08:42;2.65;;;2.00;;
55417;SDS011;41287;47.554;7.844;2023-05-10T04:11:08;3.25;;;2.00;;
55417;SDS011;41287;47.554;7.844;2023-05-10T04:13:35;3.63;;;2.20;;
55417;SDS011;41287;47.554;7.844;2023-05-10T04:16:01;2.95;;;2.10;;
55417;SDS011;41287;47.554;7.844;2023-05-10T04:18:26;4.05;;;2.15;;
55417;SDS011;41287;47.554;7.844;2023-05-10T04:20:51;2.58;;;2.05;;
55417;SDS011;41287;47.554;7.844;2023-05-10T04:23:17;3.63;;;2.25;;
55417;SDS011;41287;47.554;7.844;2023-05-10T04:25:42;2.97;;;1.77;;
55417;SDS011;41287;47.554;7.844;2023-05-10T04:28:08;2.65;;;1.95;;
55417;SDS011;41287;47.554;7.844;2023-05-10T04:30:33;2.60;;;1.77;;
55417;SDS011;41287;47.554;7.844;2023-05-10T04:32:59;2.75;;;2.13;;
55417;SDS011;41287;47.554;7.844;2023-05-10T04:35:26;2.72;;;1.80;;
55417;SDS011;41287;47.554;7.844;2023-05-10T04:37:52;3.30;;;1.85;;
55417;SDS011;41287;47.554;7.844;2023-05-10T04:40:17;2.65;;;1.73;;
55417;SDS011;41287;47.554;7.844;2023-05-10T04:42:43;3.58;;;1.98;;
55417;SDS011;41287;47.554;7.844;2023-05-10T04:45:08;3.05;;;1.90;;
55417;SDS011;41287;47.554;7.844;2023-05-10T04:47:35;2.97;;;1.80;;
55417;SDS011;41287;47.554;7.844;2023-05-10T04:50:01;2.17;;;1.50;;
55417;SDS011;41287;47.554;7.844;2023-05-10T04:52:30;3.13;;;1.85;;
55417;SDS011;41287;47.554;7.844;2023-05-10T04:54:55;4.35;;;2.08;;
55417;SDS011;41287;47.554;7.844;2023-05-10T04:57:21;3.65;;;2.00;;
55417;SDS011;41287;47.554;7.844;2023-05-10T04:59:46;2.13;;;1.63;;
55417;SDS011;41287;47.554;7.844;2023-05-10T05:02:12;2.95;;;1.92;;
55417;SDS011;41287;47.554;7.844;2023-05-10T05:04:37;2.80;;;1.77;;
55417;SDS011;41287;47.554;7.844;2023-05-10T05:07:03;2.88;;;1.80;;
55417;SDS011;41287;47.554;7.844;2023-05-10T05:09:28;2.72;;;1.67;;
55417;SDS011;41287;47.554;7.844;2023-05-10T05:11:53;4.00;;;2.40;;
55417;SDS011;41287;47.554;7.844;2023-05-10T05:14:22;3.35;;;1.95;;
55417;SDS011;41287;47.554;7.844;2023-05-10T05:16:49;3.40;;;1.98;;
55417;SDS011;41287;47.554;7.844;2023-05-10T05:19:15;2.47;;;1.67;;
55417;SDS011;41287;47.554;7.844;2023-05-10T05:21:40;2.95;;;1.65;;
55417;SDS011;41287;47.554;7.844;2023-05-10T05:24:06;5.55;;;1.77;;
55417;SDS011;41287;47.554;7.844;2023-05-10T05:26:33;2.65;;;1.60;;
55417;SDS011;41287;47.554;7.844;2023-05-10T05:28:59;2.67;;;1.73;;
55417;SDS011;41287;47.554;7.844;2023-05-10T05:31:24;3.08;;;1.90;;
55417;SDS011;41287;47.554;7.844;2023-05-10T05:33:50;2.95;;;1.60;;
55417;SDS011;41287;47.554;7.844;2023-05-10T05:36:15;2.55;;;1.60;;
55417;SDS011;41287;47.554;7.844;2023-05-10T05:38:40;3.20;;;1.50;;
55417;SDS011;41287;47.554;7.844;2023-05-10T05:41:06;4.53;;;1.70;;
55417;SDS011;41287;47.554;7.844;2023-05-10T05:43:34;3.58;;;1.45;;
55417;SDS011;41287;47.554;7.844;2023-05-10T05:45:59;4.55;;;1.65;;
55417;SDS011;41287;47.554;7.844;2023-05-10T05:48:25;2.33;;;1.65;;
55417;SDS011;41287;47.554;7.844;2023-05-10T05:50:53;3.05;;;1.75;;
55417;SDS011;41287;47.554;7.844;2023-05-10T05:53:19;3.33;;;1.58;;
55417;SDS011;41287;47.554;7.844;2023-05-10T05:55:55;2.67;;;1.60;;
55417;SDS011;41287;47.554;7.844;2023-05-10T05:58:22;3.05;;;1.80;;
55417;SDS011;41287;47.554;7.844;2023-05-10T06:00:48;3.03;;;1.73;;
55417;SDS011;41287;47.554;7.844;2023-05-10T06:03:13;2.30;;;1.63;;
55417;SDS011;41287;47.554;7.844;2023-05-10T06:05:39;3.97;;;1.60;;
55417;SDS011;41287;47.554;7.844;2023-05-10T06:08:04;3.17;;;1.77;;
55417;SDS011;41287;47.554;7.844;2023-05-10T06:10:33;2.83;;;1.75;;
55417;SDS011;41287;47.554;7.844;2023-05-10T06:12:58;2.15;;;1.48;;
55417;SDS011;41287;47.554;7.844;2023-05-10T06:15:26;2.05;;;1.30;;
55417;SDS011;41287;47.554;7.844;2023-05-10T06:17:53;3.10;;;1.85;;
55417;SDS011;41287;47.554;7.844;2023-05-10T06:20:19;3.72;;;1.67;;
55417;SDS011;41287;47.554;7.844;2023-05-10T06:22:44;6.60;;;2.22;;
55417;SDS011;41287;47.554;7.844;2023-05-10T06:25:09;3.13;;;1.40;;
55417;SDS011;41287;47.554;7.844;2023-05-10T06:27:35;2.45;;;1.40;;
55417;SDS011;41287;47.554;7.844;2023-05-10T06:30:01;3.92;;;1.60;;
55417;SDS011;41287;47.554;7.844;2023-05-10T06:32:27;2.35;;;1.30;;
55417;SDS011;41287;47.554;7.844;2023-05-10T06:34:52;2.85;;;1.33;;
55417;SDS011;41287;47.554;7.844;2023-05-10T06:37:18;2.58;;;1.48;;
55417;SDS011;41287;47.554;7.844;2023-05-10T06:39:43;2.42;;;1.65;;
55417;SDS011;41287;47.554;7.844;2023-05-10T06:42:13;6.93;;;1.60;;
55417;SDS011;41287;47.554;7.844;2023-05-10T06:44:38;2.78;;;1.58;;
55417;SDS011;41287;47.554;7.844;2023-05-10T06:47:04;2.70;;;1.40;;
55417;SDS011;41287;47.554;7.844;2023-05-10T06:49:29;2.58;;;1.60;;
55417;SDS011;41287;47.554;7.844;2023-05-10T06:51:57;2.55;;;1.50;;
55417;SDS011;41287;47.554;7.844;2023-05-10T06:54:22;2.70;;;1.50;;
55417;SDS011;41287;47.554;7.844;2023-05-10T06:56:48;2.55;;;1.23;;
55417;SDS011;41287;47.554;7.844;2023-05-10T06:59:13;2.92;;;1.52;;
55417;SDS011;41287;47.554;7.844;2023-05-10T07:01:40;2.67;;;1.60;;
55417;SDS011;41287;47.554;7.844;2023-05-10T07:04:05;2.88;;;1.48;;
55417;SDS011;41287;47.554;7.844;2023-05-10T07:06:32;3.83;;;1.60;;
55417;SDS011;41287;47.554;7.844;2023-05-10T07:08:58;3.55;;;1.50;;
55417;SDS011;41287;47.554;7.844;2023-05-10T07:11:23;2.45;;;1.38;;
55417;SDS011;41287;47.554;7.844;2023-05-10T07:13:49;2.83;;;1.50;;
55417;SDS011;41287;47.554;7.844;2023-05-10T07:16:14;3.45;;;1.20;;
55417;SDS011;41287;47.554;7.844;2023-05-10T07:18:40;2.35;;;1.40;;
55417;SDS011;41287;47.554;7.844;2023-05-10T07:21:05;2.17;;;1.23;;
55417;SDS011;41287;47.554;7.844;2023-05-10T07:23:30;2.90;;;1.35;;
55417;SDS011;41287;47.554;7.844;2023-05-10T07:25:56;2.10;;;1.50;;
55417;SDS011;41287;47.554;7.844;2023-05-10T07:28:22;3.35;;;1.42;;
55417;SDS011;41287;47.554;7.844;2023-05-10T07:30:51;1.65;;;1.20;;
55417;SDS011;41287;47.554;7.844;2023-05-10T07:33:16;3.45;;;1.42;;
55417;SDS011;41287;47.554;7.844;2023-05-10T07:35:42;2.40;;;1.17;;
55417;SDS011;41287;47.554;7.844;2023-05-10T07:38:08;2.92;;;1.30;;
55417;SDS011;41287;47.554;7.844;2023-05-10T07:40:35;3.58;;;1.25;;
55417;SDS011;41287;47.554;7.844;2023-05-10T07:43:01;1.60;;;1.23;;
55417;SDS011;41287;47.554;7.844;2023-05-10T07:45:27;3.50;;;1.38;;
55417;SDS011;41287;47.554;7.844;2023-05-10T07:47:52;2.33;;;1.30;;
55417;SDS011;41287;47.554;7.844;2023-05-10T07:50:20;2.25;;;1.58;;
55417;SDS011;41287;47.554;7.844;2023-05-10T07:52:46;1.98;;;1.15;;
55417;SDS011;41287;47.554;7.844;2023-05-10T07:55:11;1.90;;;1.13;;
55417;SDS011;41287;47.554;7.844;2023-05-10T07:57:37;2.30;;;1.33;;
55417;SDS011;41287;47.554;7.844;2023-05-10T08:00:03;1.83;;;1.38;;
55417;SDS011;41287;47.554;7.844;2023-05-10T08:02:31;2.10;;;1.30;;
55417;SDS011;41287;47.554;7.844;2023-05-10T08:04:57;2.10;;;1.25;;
55417;SDS011;41287;47.554;7.844;2023-05-10T08:07:24;1.75;;;1.30;;
55417;SDS011;41287;47.554;7.844;2023-05-10T08:09:49;1.75;;;1.13;;
55417;SDS011;41287;47.554;7.844;2023-05-10T08:12:14;2.45;;;1.23;;
55417;SDS011;41287;47.554;7.844;2023-05-10T08:14:40;2.95;;;1.38;;
55417;SDS011;41287;47.554;7.844;2023-05-10T08:17:07;4.15;;;1.48;;
55417;SDS011;41287;47.554;7.844;2023-05-10T08:19:32;5.63;;;1.77;;
55417;SDS011;41287;47.554;7.844;2023-05-10T08:22:00;2.40;;;1.33;;
55417;SDS011;41287;47.554;7.844;2023-05-10T08:24:25;2.80;;;1.30;;
55417;SDS011;41287;47.554;7.844;2023-05-10T08:26:51;2.10;;;1.50;;
55417;SDS011;41287;47.554;7.844;2023-05-10T08:29:16;1.25;;;0.90;;
55417;SDS011;41287;47.554;7.844;2023-05-10T08:31:41;3.40;;;1.27;;
55417;SDS011;41287;47.554;7.844;2023-05-10T08:34:07;1.85;;;1.10;;
55417;SDS011;41287;47.554;7.844;2023-05-10T08:36:32;2.30;;;1.40;;
55417;SDS011;41287;47.554;7.844;2023-05-10T08:38:58;2.45;;;1.40;;
55417;SDS011;41287;47.554;7.844;2023-05-10T08:41:23;2.95;;;1.20;;
55417;SDS011;41287;47.554;7.844;2023-05-10T08:43:53;2.85;;;1.33;;
55417;SDS011;41287;47.554;7.844;2023-05-10T08:46:19;2.85;;;1.55;;
55417;SDS011;41287;47.554;7.844;2023-05-10T08:48:47;1.83;;;1.27;;
55417;SDS011;41287;47.554;7.844;2023-05-10T08:51:18;4.22;;;1.17;;
55417;SDS011;41287;47.554;7.844;2023-05-10T08:53:46;2.42;;;1.42;;
55417;SDS011;41287;47.554;7.844;2023-05-10T08:56:12;1.23;;;0.90;;
55417;SDS011;41287;47.554;7.844;2023-05-10T08:58:38;1.58;;;1.05;;
55417;SDS011;41287;47.554;7.844;2023-05-10T09:01:04;1.77;;;1.20;;
55417;SDS011;41287;47.554;7.844;2023-05-10T09:03:30;2.40;;;1.33;;
55417;SDS011;41287;47.554;7.844;2023-05-10T09:05:56;2.15;;;1.20;;
55417;SDS011;41287;47.554;7.844;2023-05-10T09:08:25;1.92;;;1.00;;
55417;SDS011;41287;47.554;7.844;2023-05-10T09:10:51;1.95;;;1.20;;
55417;SDS011;41287;47.554;7.844;2023-05-10T09:13:17;1.52;;;1.20;;
55417;SDS011;41287;47.554;7.844;2023-05-10T09:15:46;1.88;;;1.35;;
55417;SDS011;41287;47.554;7.844;2023-05-10T09:18:14;3.15;;;1.40;;
55417;SDS011;41287;47.554;7.844;2023-05-10T09:20:40;1.40;;;1.00;;
55417;SDS011;41287;47.554;7.844;2023-05-10T09:23:05;2.05;;;1.35;;
55417;SDS011;41287;47.554;7.844;2023-05-10T09:25:31;1.40;;;1.10;;
55417;SDS011;41287;47.554;7.844;2023-05-10T09:27:58;1.95;;;1.35;;
55417;SDS011;41287;47.554;7.844;2023-05-10T09:30:27;1.10;;;0.90;;
55417;SDS011;41287;47.554;7.844;2023-05-10T09:32:54;1.48;;;1.20;;
55417;SDS011;41287;47.554;7.844;2023-05-10T09:35:21;2.00;;;1.20;;
55417;SDS011;41287;47.554;7.844;2023-05-10T09:37:51;1.90;;;1.20;;
55417;SDS011;41287;47.554;7.844;2023-05-10T09:40:19;1.63;;;1.00;;
55417;SDS011;41287;47.554;7.844;2023-05-10T09:42:59;1.70;;;1.10;;
55417;SDS011;41287;47.554;7.844;2023-05-10T09:45:31;2.55;;;1.20;;
55417;SDS011;41287;47.554;7.844;2023-05-10T09:47:57;1.63;;;0.93;;
55417;SDS011;41287;47.554;7.844;2023-05-10T09:50:24;1.63;;;1.00;;
55417;SDS011;41287;47.554;7.844;2023-05-10T09:52:51;2.13;;;1.10;;
55417;SDS011;41287;47.554;7.844;2023-05-10T09:55:40;1.17;;;0.98;;
55417;SDS011;41287;47.554;7.844;2023-05-10T09:58:11;1.23;;;1.00;;
55417;SDS011;41287;47.554;7.844;2023-05-10T10:00:40;1.75;;;1.10;;
55417;SDS011;41287;47.554;7.844;2023-05-10T10:03:16;1.67;;;1.15;;
55417;SDS011;41287;47.554;7.844;2023-05-10T10:05:43;2.90;;;1.25;;
55417;SDS011;41287;47.554;7.844;2023-05-10T10:08:11;1.80;;;1.27;;
55417;SDS011;41287;47.554;7.844;2023-05-10T10:10:37;2.20;;;1.00;;
55417;SDS011;41287;47.554;7.844;2023-05-10T10:13:05;2.00;;;1.20;;
55417;SDS011;41287;47.554;7.844;2023-05-10T10:15:30;1.58;;;0.90;;
55417;SDS011;41287;47.554;7.844;2023-05-10T10:17:58;1.50;;;0.80;;
55417;SDS011;41287;47.554;7.844;2023-05-10T10:20:29;1.23;;;0.90;;
55417;SDS011;41287;47.554;7.844;2023-05-10T10:22:54;1.00;;;0.80;;
55417;SDS011;41287;47.554;7.844;2023-05-10T10:25:20;1.40;;;0.90;;
55417;SDS011;41287;47.554;7.844;2023-05-10T10:30:31;2.20;;;1.02;;
55417;SDS011;41287;47.554;7.844;2023-05-10T10:35:58;1.75;;;1.23;;
55417;SDS011;41287;47.554;7.844;2023-05-10T10:38:25;2.25;;;1.10;;
55417;SDS011;41287;47.554;7.844;2023-05-10T10:41:10;3.00;;;0.90;;
55417;SDS011;41287;47.554;7.844;2023-05-10T10:44:13;4.60;;;1.13;;
55417;SDS011;41287;47.554;7.844;2023-05-10T10:57:25;4.38;;;1.00;;
55417;SDS011;41287;47.554;7.844;2023-05-10T11:02:45;3.17;;;1.00;;
55417;SDS011;41287;47.554;7.844;2023-05-10T11:07:54;2.25;;;0.80;;
55417;SDS011;41287;47.554;7.844;2023-05-10T11:10:21;2.70;;;1.20;;
55417;SDS011;41287;47.554;7.844;2023-05-10T11:12:51;3.70;;;0.90;;
55417;SDS011;41287;47.554;7.844;2023-05-10T11:15:32;2.20;;;0.80;;
55417;SDS011;41287;47.554;7.844;2023-05-10T11:18:16;3.42;;;0.90;;
55417;SDS011;41287;47.554;7.844;2023-05-10T11:20:51;1.98;;;0.82;;
55417;SDS011;41287;47.554;7.844;2023-05-10T11:23:23;2.65;;;1.00;;
55417;SDS011;41287;47.554;7.844;2023-05-10T11:25:55;1.08;;;0.82;;
55417;SDS011;41287;47.554;7.844;2023-05-10T11:28:23;1.50;;;0.85;;
55417;SDS011;41287;47.554;7.844;2023-05-10T11:30:48;2.47;;;1.08;;
55417;SDS011;41287;47.554;7.844;2023-05-10T11:33:15;1.50;;;0.82;;
55417;SDS011;41287;47.554;7.844;2023-05-10T11:35:41;3.90;;;0.88;;
55417;SDS011;41287;47.554;7.844;2023-05-10T11:38:10;3.90;;;0.90;;
55417;SDS011;41287;47.554;7.844;2023-05-10T11:40:37;3.03;;;0.90;;
55417;SDS011;41287;47.554;7.844;2023-05-10T11:43:03;5.47;;;1.17;;
55417;SDS011;41287;47.554;7.844;2023-05-10T11:45:31;3.00;;;0.90;;
55417;SDS011;41287;47.554;7.844;2023-05-10T11:47:57;2.10;;;1.08;;
55417;SDS011;41287;47.554;7.844;2023-05-10T11:50:23;2.10;;;1.05;;
55417;SDS011;41287;47.554;7.844;2023-05-10T11:52:52;3.95;;;0.75;;
55417;SDS011;41287;47.554;7.844;2023-05-10T11:55:19;3.33;;;1.10;;
55417;SDS011;41287;47.554;7.844;2023-05-10T11:57:44;2.92;;;0.95;;
55417;SDS011;41287;47.554;7.844;2023-05-10T12:00:11;2.05;;;0.80;;
55417;SDS011;41287;47.554;7.844;2023-05-10T12:02:38;4.10;;;1.55;;
55417;SDS011;41287;47.554;7.844;2023-05-10T12:05:05;2.47;;;0.98;;
55417;SDS011;41287;47.554;7.844;2023-05-10T12:07:32;1.50;;;0.60;;
55417;SDS011;41287;47.554;7.844;2023-05-10T12:10:04;2.65;;;0.88;;
55417;SDS011;41287;47.554;7.844;2023-05-10T12:12:40;4.03;;;1.00;;
55417;SDS011;41287;47.554;7.844;2023-05-10T12:15:10;1.90;;;1.00;;
55417;SDS011;41287;47.554;7.844;2023-05-10T12:17:38;4.70;;;1.42;;
55417;SDS011;41287;47.554;7.844;2023-05-10T12:22:49;1.42;;;0.88;;
55417;SDS011;41287;47.554;7.844;2023-05-10T12:25:20;3.33;;;1.10;;
55417;SDS011;41287;47.554;7.844;2023-05-10T12:27:53;3.00;;;1.05;;
55417;SDS011;41287;47.554;7.844;2023-05-10T12:30:23;2.70;;;1.08;;
55417;SDS011;41287;47.554;7.844;2023-05-10T12:32:50;2.65;;;1.00;;
55417;SDS011;41287;47.554;7.844;2023-05-10T12:35:17;1.60;;;0.80;;
55417;SDS011;41287;47.554;7.844;2023-05-10T12:37:45;1.55;;;0.90;;
55417;SDS011;41287;47.554;7.844;2023-05-10T12:40:11;4.85;;;1.38;;
55417;SDS011;41287;47.554;7.844;2023-05-10T12:42:37;2.33;;;1.02;;
55417;SDS011;41287;47.554;7.844;2023-05-10T12:45:03;2.50;;;0.90;;
55417;SDS011;41287;47.554;7.844;2023-05-10T12:47:30;3.65;;;1.00;;
55417;SDS011;41287;47.554;7.844;2023-05-10T12:50:00;3.65;;;0.90;;
55417;SDS011;41287;47.554;7.844;2023-05-10T12:52:26;3.15;;;0.80;;
55417;SDS011;41287;47.554;7.844;2023-05-10T12:54:52;3.70;;;1.00;;
55417;SDS011;41287;47.554;7.844;2023-05-10T12:57:18;2.35;;;0.90;;
55417;SDS011;41287;47.554;7.844;2023-05-10T12:59:45;1.75;;;0.90;;
55417;SDS011;41287;47.554;7.844;2023-05-10T13:02:10;2.70;;;0.90;;
55417;SDS011;41287;47.554;7.844;2023-05-10T13:04:35;2.80;;;0.93;;
55417;SDS011;41287;47.554;7.844;2023-05-10T13:07:05;3.97;;;1.00;;
55417;SDS011;41287;47.554;7.844;2023-05-10T13:09:33;4.20;;;1.08;;
55417;SDS011;41287;47.554;7.844;2023-05-10T13:11:58;3.05;;;0.90;;
55417;SDS011;41287;47.554;7.844;2023-05-10T13:14:24;1.45;;;0.90;;
55417;SDS011;41287;47.554;7.844;2023-05-10T13:16:51;1.90;;;0.82;;
55417;SDS011;41287;47.554;7.844;2023-05-10T13:19:17;1.67;;;0.80;;
55417;SDS011;41287;47.554;7.844;2023-05-10T13:21:42;3.67;;;0.90;;
55417;SDS011;41287;47.554;7.844;2023-05-10T13:24:09;2.05;;;1.02;;
55417;SDS011;41287;47.554;7.844;2023-05-10T13:26:35;1.90;;;1.08;;
55417;SDS011;41287;47.554;7.844;2023-05-10T13:29:01;2.08;;;0.80;;
55417;SDS011;41287;47.554;7.844;2023-05-10T13:31:28;11.63;;;2.22;;
55417;SDS011;41287;47.554;7.844;2023-05-10T13:33:53;17.58;;;2.30;;
55417;SDS011;41287;47.554;7.844;2023-05-10T13:36:18;9.23;;;2.33;;
55417;SDS011;41287;47.554;7.844;2023-05-10T13:38:43;8.57;;;1.60;;
55417;SDS011;41287;47.554;7.844;2023-05-10T13:41:12;10.35;;;1.83;;
55417;SDS011;41287;47.554;7.844;2023-05-10T13:43:37;7.78;;;1.88;;
55417;SDS011;41287;47.554;7.844;2023-05-10T13:46:03;8.95;;;1.60;;
55417;SDS011;41287;47.554;7.844;2023-05-10T13:48:28;8.32;;;1.38;;
55417;SDS011;41287;47.554;7.844;2023-05-10T13:50:53;4.53;;;1.40;;
55417;SDS011;41287;47.554;7.844;2023-05-10T13:53:19;9.07;;;1.55;;
55417;SDS011;41287;47.554;7.844;2023-05-10T13:55:50;6.60;;;1.30;;
55417;SDS011;41287;47.554;7.844;2023-05-10T13:58:22;5.57;;;1.45;;
55417;SDS011;41287;47.554;7.844;2023-05-10T14:00:48;5.43;;;1.20;;
55417;SDS011;41287;47.554;7.844;2023-05-10T14:03:13;5.35;;;1.02;;
55417;SDS011;41287;47.554;7.844;2023-05-10T14:05:39;4.25;;;1.20;;
55417;SDS011;41287;47.554;7.844;2023-05-10T14:08:04;6.38;;;1.30;;
55417;SDS011;41287;47.554;7.844;2023-05-10T14:10:30;8.90;;;1.33;;
55417;SDS011;41287;47.554;7.844;2023-05-10T14:12:55;8.23;;;1.35;;
55417;SDS011;41287;47.554;7.844;2023-05-10T14:15:20;4.55;;;1.38;;
55417;SDS011;41287;47.554;7.844;2023-05-10T14:17:46;5.07;;;1.10;;
55417;SDS011;41287;47.554;7.844;2023-05-10T14:20:11;3.83;;;1.20;;
55417;SDS011;41287;47.554;7.844;2023-05-10T14:22:42;6.25;;;1.35;;
55417;SDS011;41287;47.554;7.844;2023-05-10T14:25:07;4.57;;;1.20;;
55417;SDS011;41287;47.554;7.844;2023-05-10T14:27:33;4.43;;;1.30;;
55417;SDS011;41287;47.554;7.844;2023-05-10T14:29:59;4.57;;;1.50;;
55417;SDS011;41287;47.554;7.844;2023-05-10T14:32:24;4.65;;;1.20;;
55417;SDS011;41287;47.554;7.844;2023-05-10T14:34:51;6.47;;;1.65;;
55417;SDS011;41287;47.554;7.844;2023-05-10T14:37:17;5.53;;;1.33;;
55417;SDS011;41287;47.554;7.844;2023-05-10T14:39:42;2.95;;;1.27;;
55417;SDS011;41287;47.554;7.844;2023-05-10T14:42:07;5.40;;;1.17;;
55417;SDS011;41287;47.554;7.844;2023-05-10T14:44:33;3.78;;;1.00;;
55417;SDS011;41287;47.554;7.844;2023-05-10T14:47:02;2.65;;;1.00;;
55417;SDS011;41287;47.554;7.844;2023-05-10T14:49:27;7.25;;;1.85;;
55417;SDS011;41287;47.554;7.844;2023-05-10T14:51:52;4.57;;;1.17;;
55417;SDS011;41287;47.554;7.844;2023-05-10T14:54:18;4.75;;;1.20;;
55417;SDS011;41287;47.554;7.844;2023-05-10T14:56:43;6.38;;;1.30;;
55417;SDS011;41287;47.554;7.844;2023-05-10T14:59:09;3.50;;;1.17;;
55417;SDS011;41287;47.554;7.844;2023-05-10T15:01:34;3.35;;;0.90;;
55417;SDS011;41287;47.554;7.844;2023-05-10T15:04:02;2.72;;;1.00;;
55417;SDS011;41287;47.554;7.844;2023-05-10T15:06:31;4.53;;;1.20;;
55417;SDS011;41287;47.554;7.844;2023-05-10T15:08:57;3.47;;;1.30;;
55417;SDS011;41287;47.554;7.844;2023-05-10T15:11:26;1.65;;;0.90;;
55417;SDS011;41287;47.554;7.844;2023-05-10T15:13:52;2.55;;;1.05;;
55417;SDS011;41287;47.554;7.844;2023-05-10T15:16:18;3.05;;;1.17;;
55417;SDS011;41287;47.554;7.844;2023-05-10T15:18:43;3.10;;;1.02;;
55417;SDS011;41287;47.554;7.844;2023-05-10T15:21:11;3.42;;;1.00;;
55417;SDS011;41287;47.554;7.844;2023-05-10T15:23:38;3.15;;;1.10;;
55417;SDS011;41287;47.554;7.844;2023-05-10T15:26:03;3.70;;;1.05;;
55417;SDS011;41287;47.554;7.844;2023-05-10T15:28:28;4.10;;;1.05;;